Big Springs, Nebraska
Current Conditions -  °F | °C
As of 1:35 PM on Thursday 27 Nov 2014 (Local Time) from KOGA Reporting Station
Clear Clear  
Wind Chill: 57°   Ceiling: Unl
Heat Index: 57°   Visibility: 10mi
Dew Point: 40°   Wind: 12mph
Humidity: 52%   Direction: 210°SSW
Pressure: 30.04"   Gusts: 16mph
Location:  41.06°N, 102.07°W
Report Text: KOGA 272035Z AUTO 21010G14KT 10SM CLR 14/04 A3004 RMK AO2 T01410043
Loading
Personal Weather Stations






























Interactive Weather Map New forecast layout! Learn more

10-Day Weather Forecast

Advertisements
Track Severe Weather on mobile